石垣島の過去48時間の天気

石垣島 (Ishigaki jima)

現在時刻: 7/18 14:09 JST (7/18 05:09 UTC) 以下の時間は現地時間です。

過去48時間のMETAR気象情報
時間 風向 風速(m/s) 視程 気温(℃) 湿度(%) 気圧(hPa) 天気現象
18 13:00 東北東 7 10km以上 31 75 1005
18 12:00 東北東 7 10km以上 31 84 1006
18 11:00 東北東 7 10km以上 30 84 1006
18 10:00 東北東 7 10km以上 30 84 1006
18 09:00 東北東 7 10km以上 30 84 1006
18 08:00 東北東 7 10km以上 29 84 1006
18 07:00 東北東 6 10km以上 28 89 1005
18 06:00 東北東 6 10km以上 28 89 1005
17 20:00 6 10km以上 28 89 1006
17 19:00 東北東 6 10km以上 29 84 1005
17 18:00 6 10km以上 29 84 1005
17 17:00 7 10km以上 30 84 1005 周辺でしゅう雨
17 16:00 7 10km以上 31 79 1005
17 15:00 7 10km以上 31 75 1005
17 14:00 7 10km以上 31 79 1006
17 13:00 6 10km以上 31 75 1006
17 12:00 6 10km以上 31 79 1007
17 11:00 7 10km以上 30 79 1007
17 10:00 6 10km以上 30 79 1007
17 09:00 7 10km以上 30 84 1007
17 08:00 6 10km以上 28 89 1007
17 07:00 6 10km以上 28 89 1006
17 06:00 6 10km以上 28 89 1006
ROIG 180400Z 07013KT 9999 FEW017 SCT032 31/26 Q1005
ROIG 180300Z 06013KT 9999 FEW016 31/28 Q1006
ROIG 180200Z 06013KT 9999 FEW014 30/27 Q1006
ROIG 180100Z 06014KT 9999 FEW016 30/27 Q1006
ROIG 180000Z 07014KT 9999 FEW017 30/27 Q1006
ROIG 172300Z 07014KT 9999 FEW015 29/26 Q1006
ROIG 172200Z 07011KT 9999 FEW015 SCT022 28/26 Q1005
ROIG 172100Z 07012KT 9999 FEW015 BKN021 28/26 Q1005
ROIG 171100Z 08011KT 9999 FEW015 SCT020 28/26 Q1006
ROIG 171000Z 07012KT 9999 FEW015 29/26 Q1005
ROIG 170900Z 08012KT 9999 FEW015 29/26 Q1005
ROIG 170800Z 08013KT 9999 VCSH FEW015 SCT020 BKN030 30/27 Q1005
ROIG 170700Z 09013KT 9999 FEW015 SCT020 31/27 Q1005
ROIG 170600Z 08013KT 9999 FEW015 31/26 Q1005
ROIG 170500Z 09013KT 9999 FEW015 31/27 Q1006
ROIG 170400Z 09011KT 9999 FEW015 SCT020 31/26 Q1006
ROIG 170300Z 09012KT 9999 FEW015 SCT020 31/27 Q1007
ROIG 170200Z 08013KT 9999 FEW015 30/26 Q1007
ROIG 170100Z 08012KT 9999 FEW014 30/26 Q1007
ROIG 170000Z 08013KT 9999 FEW015 SCT030 30/27 Q1007
ROIG 162300Z 08011KT 9999 FEW015 SCT026 28/26 Q1007
ROIG 162200Z 08012KT 9999 FEW015 SCT025 28/26 Q1006
ROIG 162100Z 09012KT 9999 FEW014 SCT/// 28/26 Q1006